sensor_id;sensor_type;location;lat;lon;timestamp;P1;durP1;ratioP1;P2;durP2;ratioP2
13090;SDS011;6611;52.604;13.438;2023-02-21T00:03:03;4.47;;;3.10;;
13090;SDS011;6611;52.604;13.438;2023-02-21T00:08:23;3.70;;;2.67;;
13090;SDS011;6611;52.604;13.438;2023-02-21T00:13:42;3.03;;;2.43;;
13090;SDS011;6611;52.604;13.438;2023-02-21T00:19:01;3.93;;;2.53;;
13090;SDS011;6611;52.604;13.438;2023-02-21T00:24:21;4.70;;;2.80;;
13090;SDS011;6611;52.604;13.438;2023-02-21T00:29:40;4.20;;;2.33;;
13090;SDS011;6611;52.604;13.438;2023-02-21T00:35:00;4.83;;;2.53;;
13090;SDS011;6611;52.604;13.438;2023-02-21T00:40:21;3.20;;;2.40;;
13090;SDS011;6611;52.604;13.438;2023-02-21T00:45:40;4.40;;;2.87;;
13090;SDS011;6611;52.604;13.438;2023-02-21T00:50:59;5.10;;;2.83;;
13090;SDS011;6611;52.604;13.438;2023-02-21T00:56:19;5.10;;;2.90;;
13090;SDS011;6611;52.604;13.438;2023-02-21T01:01:39;4.07;;;3.10;;
13090;SDS011;6611;52.604;13.438;2023-02-21T01:06:57;4.30;;;2.67;;
13090;SDS011;6611;52.604;13.438;2023-02-21T01:12:18;5.10;;;3.40;;
13090;SDS011;6611;52.604;13.438;2023-02-21T01:17:37;4.30;;;2.90;;
13090;SDS011;6611;52.604;13.438;2023-02-21T01:22:56;6.90;;;3.60;;
13090;SDS011;6611;52.604;13.438;2023-02-21T01:28:16;6.23;;;3.23;;
13090;SDS011;6611;52.604;13.438;2023-02-21T01:33:36;8.00;;;4.17;;
13090;SDS011;6611;52.604;13.438;2023-02-21T01:38:56;5.80;;;3.83;;
13090;SDS011;6611;52.604;13.438;2023-02-21T01:44:34;6.67;;;4.00;;
13090;SDS011;6611;52.604;13.438;2023-02-21T01:49:55;6.70;;;4.07;;
13090;SDS011;6611;52.604;13.438;2023-02-21T01:55:14;6.23;;;3.90;;
13090;SDS011;6611;52.604;13.438;2023-02-21T02:00:34;7.03;;;4.30;;
13090;SDS011;6611;52.604;13.438;2023-02-21T02:05:55;8.00;;;4.10;;
13090;SDS011;6611;52.604;13.438;2023-02-21T02:11:20;7.07;;;4.40;;
13090;SDS011;6611;52.604;13.438;2023-02-21T02:16:50;7.87;;;4.87;;
13090;SDS011;6611;52.604;13.438;2023-02-21T02:27:41;6.63;;;4.17;;
13090;SDS011;6611;52.604;13.438;2023-02-21T02:33:00;7.47;;;4.87;;
13090;SDS011;6611;52.604;13.438;2023-02-21T02:38:24;8.47;;;5.17;;
13090;SDS011;6611;52.604;13.438;2023-02-21T02:43:31;8.87;;;5.10;;
13090;SDS011;6611;52.604;13.438;2023-02-21T02:48:36;6.30;;;4.20;;
13090;SDS011;6611;52.604;13.438;2023-02-21T02:53:42;8.80;;;4.67;;
13090;SDS011;6611;52.604;13.438;2023-02-21T02:58:46;6.63;;;4.30;;
13090;SDS011;6611;52.604;13.438;2023-02-21T03:03:55;7.80;;;4.63;;
13090;SDS011;6611;52.604;13.438;2023-02-21T03:09:10;6.60;;;4.63;;
13090;SDS011;6611;52.604;13.438;2023-02-21T03:14:15;7.00;;;4.17;;
13090;SDS011;6611;52.604;13.438;2023-02-21T03:19:20;7.10;;;4.40;;
13090;SDS011;6611;52.604;13.438;2023-02-21T03:24:26;7.20;;;4.13;;
13090;SDS011;6611;52.604;13.438;2023-02-21T03:29:29;8.50;;;4.70;;
13090;SDS011;6611;52.604;13.438;2023-02-21T03:34:32;7.53;;;4.23;;
13090;SDS011;6611;52.604;13.438;2023-02-21T03:39:35;7.23;;;4.33;;
13090;SDS011;6611;52.604;13.438;2023-02-21T03:44:37;6.80;;;4.30;;
13090;SDS011;6611;52.604;13.438;2023-02-21T03:49:39;8.57;;;4.10;;
13090;SDS011;6611;52.604;13.438;2023-02-21T03:54:42;8.43;;;4.43;;
13090;SDS011;6611;52.604;13.438;2023-02-21T03:59:44;7.27;;;3.77;;
13090;SDS011;6611;52.604;13.438;2023-02-21T04:04:46;8.40;;;4.67;;
13090;SDS011;6611;52.604;13.438;2023-02-21T04:09:49;9.63;;;4.57;;
13090;SDS011;6611;52.604;13.438;2023-02-21T04:14:51;7.83;;;4.27;;
13090;SDS011;6611;52.604;13.438;2023-02-21T04:19:55;6.77;;;4.17;;
13090;SDS011;6611;52.604;13.438;2023-02-21T04:24:58;7.63;;;4.17;;
13090;SDS011;6611;52.604;13.438;2023-02-21T04:30:00;8.43;;;4.70;;
13090;SDS011;6611;52.604;13.438;2023-02-21T04:35:02;6.47;;;4.43;;
13090;SDS011;6611;52.604;13.438;2023-02-21T04:40:05;7.60;;;3.70;;
13090;SDS011;6611;52.604;13.438;2023-02-21T04:45:08;8.00;;;4.23;;
13090;SDS011;6611;52.604;13.438;2023-02-21T04:50:10;6.50;;;4.50;;
13090;SDS011;6611;52.604;13.438;2023-02-21T04:55:13;6.70;;;4.07;;
13090;SDS011;6611;52.604;13.438;2023-02-21T05:00:16;6.50;;;4.23;;
13090;SDS011;6611;52.604;13.438;2023-02-21T05:05:18;7.37;;;3.80;;
13090;SDS011;6611;52.604;13.438;2023-02-21T05:10:21;5.13;;;3.00;;
13090;SDS011;6611;52.604;13.438;2023-02-21T05:15:22;4.90;;;2.80;;
13090;SDS011;6611;52.604;13.438;2023-02-21T05:20:25;5.87;;;3.77;;
13090;SDS011;6611;52.604;13.438;2023-02-21T05:25:29;7.73;;;4.40;;
13090;SDS011;6611;52.604;13.438;2023-02-21T05:30:30;6.40;;;3.73;;
13090;SDS011;6611;52.604;13.438;2023-02-21T05:35:32;6.53;;;4.07;;
13090;SDS011;6611;52.604;13.438;2023-02-21T05:40:35;6.00;;;4.00;;
13090;SDS011;6611;52.604;13.438;2023-02-21T05:45:37;5.47;;;3.50;;
13090;SDS011;6611;52.604;13.438;2023-02-21T05:50:38;6.00;;;3.57;;
13090;SDS011;6611;52.604;13.438;2023-02-21T05:55:41;6.63;;;3.53;;
13090;SDS011;6611;52.604;13.438;2023-02-21T06:00:43;6.80;;;3.43;;
13090;SDS011;6611;52.604;13.438;2023-02-21T06:05:45;5.23;;;3.17;;
13090;SDS011;6611;52.604;13.438;2023-02-21T06:10:48;6.00;;;3.30;;
13090;SDS011;6611;52.604;13.438;2023-02-21T06:15:49;4.87;;;3.13;;
13090;SDS011;6611;52.604;13.438;2023-02-21T06:20:51;4.70;;;2.90;;
13090;SDS011;6611;52.604;13.438;2023-02-21T06:25:54;4.03;;;2.30;;
13090;SDS011;6611;52.604;13.438;2023-02-21T06:30:56;2.83;;;1.90;;
13090;SDS011;6611;52.604;13.438;2023-02-21T06:36:01;2.73;;;1.67;;
13090;SDS011;6611;52.604;13.438;2023-02-21T06:41:05;2.27;;;1.60;;
13090;SDS011;6611;52.604;13.438;2023-02-21T06:46:08;2.03;;;1.30;;
13090;SDS011;6611;52.604;13.438;2023-02-21T06:51:10;2.10;;;1.60;;
13090;SDS011;6611;52.604;13.438;2023-02-21T06:56:14;1.63;;;1.20;;
13090;SDS011;6611;52.604;13.438;2023-02-21T07:01:16;1.30;;;1.00;;
13090;SDS011;6611;52.604;13.438;2023-02-21T07:06:18;1.73;;;1.10;;
13090;SDS011;6611;52.604;13.438;2023-02-21T07:11:21;2.60;;;1.00;;
13090;SDS011;6611;52.604;13.438;2023-02-21T07:16:23;3.87;;;1.37;;
13090;SDS011;6611;52.604;13.438;2023-02-21T07:21:26;1.43;;;1.20;;
13090;SDS011;6611;52.604;13.438;2023-02-21T07:26:29;2.00;;;1.30;;
13090;SDS011;6611;52.604;13.438;2023-02-21T07:31:31;1.00;;;0.73;;
13090;SDS011;6611;52.604;13.438;2023-02-21T07:36:34;1.30;;;0.90;;
13090;SDS011;6611;52.604;13.438;2023-02-21T07:41:38;1.13;;;0.70;;
13090;SDS011;6611;52.604;13.438;2023-02-21T07:46:40;0.87;;;0.70;;
13090;SDS011;6611;52.604;13.438;2023-02-21T07:51:45;1.13;;;0.90;;
13090;SDS011;6611;52.604;13.438;2023-02-21T07:56:48;4.37;;;0.80;;
13090;SDS011;6611;52.604;13.438;2023-02-21T08:01:51;1.20;;;1.00;;
13090;SDS011;6611;52.604;13.438;2023-02-21T08:06:57;1.37;;;1.00;;
13090;SDS011;6611;52.604;13.438;2023-02-21T08:12:00;2.67;;;1.13;;
13090;SDS011;6611;52.604;13.438;2023-02-21T08:17:02;1.13;;;0.77;;
13090;SDS011;6611;52.604;13.438;2023-02-21T08:22:04;2.77;;;0.87;;
13090;SDS011;6611;52.604;13.438;2023-02-21T08:27:07;1.07;;;0.60;;
13090;SDS011;6611;52.604;13.438;2023-02-21T08:32:09;2.43;;;0.87;;
13090;SDS011;6611;52.604;13.438;2023-02-21T08:37:11;0.80;;;0.60;;
13090;SDS011;6611;52.604;13.438;2023-02-21T08:42:17;0.57;;;0.50;;
13090;SDS011;6611;52.604;13.438;2023-02-21T08:47:19;1.07;;;0.70;;
13090;SDS011;6611;52.604;13.438;2023-02-21T08:52:21;2.43;;;0.53;;
13090;SDS011;6611;52.604;13.438;2023-02-21T08:57:24;2.33;;;0.57;;
13090;SDS011;6611;52.604;13.438;2023-02-21T09:02:26;4.20;;;0.93;;
13090;SDS011;6611;52.604;13.438;2023-02-21T09:07:29;0.90;;;0.60;;
13090;SDS011;6611;52.604;13.438;2023-02-21T09:12:33;1.77;;;0.50;;
13090;SDS011;6611;52.604;13.438;2023-02-21T09:17:35;1.23;;;0.40;;
13090;SDS011;6611;52.604;13.438;2023-02-21T09:22:37;1.53;;;0.60;;
13090;SDS011;6611;52.604;13.438;2023-02-21T09:27:40;1.10;;;0.80;;
13090;SDS011;6611;52.604;13.438;2023-02-21T09:32:42;0.63;;;0.50;;
13090;SDS011;6611;52.604;13.438;2023-02-21T09:37:44;1.67;;;0.80;;
13090;SDS011;6611;52.604;13.438;2023-02-21T09:42:47;1.67;;;0.90;;
13090;SDS011;6611;52.604;13.438;2023-02-21T09:47:51;2.07;;;0.77;;
13090;SDS011;6611;52.604;13.438;2023-02-21T09:52:56;2.50;;;0.80;;
13090;SDS011;6611;52.604;13.438;2023-02-21T09:58:00;2.37;;;0.70;;
13090;SDS011;6611;52.604;13.438;2023-02-21T10:03:06;2.13;;;0.93;;
13090;SDS011;6611;52.604;13.438;2023-02-21T10:08:18;2.50;;;0.70;;
13090;SDS011;6611;52.604;13.438;2023-02-21T10:13:36;1.77;;;0.70;;
13090;SDS011;6611;52.604;13.438;2023-02-21T10:18:41;3.03;;;1.03;;
13090;SDS011;6611;52.604;13.438;2023-02-21T10:23:49;4.63;;;1.20;;
13090;SDS011;6611;52.604;13.438;2023-02-21T10:28:54;6.30;;;1.20;;
13090;SDS011;6611;52.604;13.438;2023-02-21T10:33:58;4.50;;;0.83;;
13090;SDS011;6611;52.604;13.438;2023-02-21T10:39:03;3.17;;;0.90;;
13090;SDS011;6611;52.604;13.438;2023-02-21T10:44:11;6.27;;;0.90;;
13090;SDS011;6611;52.604;13.438;2023-02-21T10:49:20;7.47;;;1.10;;
13090;SDS011;6611;52.604;13.438;2023-02-21T10:54:28;2.30;;;1.07;;
13090;SDS011;6611;52.604;13.438;2023-02-21T10:59:31;7.03;;;1.10;;
13090;SDS011;6611;52.604;13.438;2023-02-21T11:04:35;6.07;;;1.73;;
13090;SDS011;6611;52.604;13.438;2023-02-21T11:09:41;4.33;;;1.00;;
13090;SDS011;6611;52.604;13.438;2023-02-21T11:14:45;6.60;;;1.40;;
13090;SDS011;6611;52.604;13.438;2023-02-21T11:20:14;7.90;;;1.30;;
13090;SDS011;6611;52.604;13.438;2023-02-21T11:25:20;2.80;;;1.10;;
13090;SDS011;6611;52.604;13.438;2023-02-21T11:30:25;3.90;;;1.07;;
13090;SDS011;6611;52.604;13.438;2023-02-21T11:35:27;4.40;;;1.80;;
13090;SDS011;6611;52.604;13.438;2023-02-21T11:40:32;3.07;;;0.93;;
13090;SDS011;6611;52.604;13.438;2023-02-21T11:45:43;6.17;;;1.17;;
13090;SDS011;6611;52.604;13.438;2023-02-21T11:50:55;4.13;;;0.87;;
13090;SDS011;6611;52.604;13.438;2023-02-21T11:55:59;6.57;;;1.20;;
13090;SDS011;6611;52.604;13.438;2023-02-21T12:01:08;5.90;;;1.10;;
13090;SDS011;6611;52.604;13.438;2023-02-21T12:06:15;4.70;;;1.20;;
13090;SDS011;6611;52.604;13.438;2023-02-21T12:11:33;6.13;;;1.50;;
13090;SDS011;6611;52.604;13.438;2023-02-21T12:16:49;5.60;;;1.23;;
13090;SDS011;6611;52.604;13.438;2023-02-21T12:22:01;6.63;;;1.23;;
13090;SDS011;6611;52.604;13.438;2023-02-21T12:27:05;4.63;;;1.03;;
13090;SDS011;6611;52.604;13.438;2023-02-21T12:32:21;2.53;;;1.10;;
13090;SDS011;6611;52.604;13.438;2023-02-21T12:37:34;7.10;;;1.30;;
13090;SDS011;6611;52.604;13.438;2023-02-21T12:42:51;3.37;;;0.90;;
13090;SDS011;6611;52.604;13.438;2023-02-21T12:48:04;5.07;;;0.80;;
13090;SDS011;6611;52.604;13.438;2023-02-21T12:53:12;6.60;;;1.27;;
13090;SDS011;6611;52.604;13.438;2023-02-21T12:58:20;6.77;;;0.90;;
13090;SDS011;6611;52.604;13.438;2023-02-21T13:03:31;1.77;;;0.93;;
13090;SDS011;6611;52.604;13.438;2023-02-21T13:08:46;4.57;;;1.13;;
13090;SDS011;6611;52.604;13.438;2023-02-21T13:13:54;5.30;;;1.50;;
13090;SDS011;6611;52.604;13.438;2023-02-21T13:18:59;4.90;;;1.00;;
13090;SDS011;6611;52.604;13.438;2023-02-21T13:24:09;3.23;;;0.97;;
13090;SDS011;6611;52.604;13.438;2023-02-21T13:29:16;5.23;;;1.13;;
13090;SDS011;6611;52.604;13.438;2023-02-21T13:34:21;6.20;;;0.90;;
13090;SDS011;6611;52.604;13.438;2023-02-21T13:39:26;4.87;;;1.30;;
13090;SDS011;6611;52.604;13.438;2023-02-21T13:44:31;3.53;;;0.97;;
13090;SDS011;6611;52.604;13.438;2023-02-21T13:49:38;3.10;;;0.70;;
13090;SDS011;6611;52.604;13.438;2023-02-21T14:00:45;5.20;;;1.40;;
13090;SDS011;6611;52.604;13.438;2023-02-21T14:11:35;6.83;;;1.10;;
13090;SDS011;6611;52.604;13.438;2023-02-21T14:16:45;5.23;;;1.17;;
13090;SDS011;6611;52.604;13.438;2023-02-21T14:21:49;5.33;;;0.60;;
13090;SDS011;6611;52.604;13.438;2023-02-21T14:27:00;4.00;;;1.10;;
13090;SDS011;6611;52.604;13.438;2023-02-21T14:37:29;3.60;;;1.60;;
13090;SDS011;6611;52.604;13.438;2023-02-21T14:42:41;4.83;;;1.13;;
13090;SDS011;6611;52.604;13.438;2023-02-21T14:53:47;4.37;;;1.20;;
13090;SDS011;6611;52.604;13.438;2023-02-21T14:59:13;5.90;;;1.33;;
13090;SDS011;6611;52.604;13.438;2023-02-21T15:04:29;5.17;;;1.60;;
13090;SDS011;6611;52.604;13.438;2023-02-21T15:09:34;4.50;;;1.40;;
13090;SDS011;6611;52.604;13.438;2023-02-21T15:14:39;3.77;;;1.23;;
13090;SDS011;6611;52.604;13.438;2023-02-21T15:19:47;8.13;;;1.50;;
13090;SDS011;6611;52.604;13.438;2023-02-21T15:25:17;5.20;;;1.53;;
13090;SDS011;6611;52.604;13.438;2023-02-21T15:30:23;7.27;;;1.50;;
13090;SDS011;6611;52.604;13.438;2023-02-21T15:35:31;5.77;;;1.60;;
13090;SDS011;6611;52.604;13.438;2023-02-21T15:40:34;6.80;;;1.60;;
13090;SDS011;6611;52.604;13.438;2023-02-21T15:45:43;7.57;;;1.33;;
13090;SDS011;6611;52.604;13.438;2023-02-21T15:50:46;3.30;;;1.10;;
13090;SDS011;6611;52.604;13.438;2023-02-21T15:55:49;4.10;;;1.50;;
13090;SDS011;6611;52.604;13.438;2023-02-21T16:06:17;3.53;;;1.30;;
13090;SDS011;6611;52.604;13.438;2023-02-21T16:11:22;8.97;;;1.47;;
13090;SDS011;6611;52.604;13.438;2023-02-21T16:16:27;4.50;;;1.10;;
13090;SDS011;6611;52.604;13.438;2023-02-21T16:21:33;4.43;;;1.57;;
13090;SDS011;6611;52.604;13.438;2023-02-21T16:26:35;8.20;;;1.73;;
13090;SDS011;6611;52.604;13.438;2023-02-21T16:31:38;4.00;;;1.50;;
13090;SDS011;6611;52.604;13.438;2023-02-21T16:36:41;3.70;;;1.13;;
13090;SDS011;6611;52.604;13.438;2023-02-21T16:41:42;5.87;;;1.53;;
13090;SDS011;6611;52.604;13.438;2023-02-21T16:46:45;2.83;;;1.57;;
13090;SDS011;6611;52.604;13.438;2023-02-21T16:51:47;7.00;;;1.90;;
13090;SDS011;6611;52.604;13.438;2023-02-21T16:56:49;8.97;;;1.47;;
13090;SDS011;6611;52.604;13.438;2023-02-21T17:01:54;11.80;;;1.93;;
13090;SDS011;6611;52.604;13.438;2023-02-21T17:06:57;5.10;;;1.43;;
13090;SDS011;6611;52.604;13.438;2023-02-21T17:12:01;9.63;;;2.23;;
13090;SDS011;6611;52.604;13.438;2023-02-21T17:17:04;3.50;;;1.70;;
13090;SDS011;6611;52.604;13.438;2023-02-21T17:22:05;7.73;;;2.07;;
13090;SDS011;6611;52.604;13.438;2023-02-21T17:27:07;6.43;;;2.00;;
13090;SDS011;6611;52.604;13.438;2023-02-21T17:32:10;5.37;;;1.90;;
13090;SDS011;6611;52.604;13.438;2023-02-21T17:37:12;7.37;;;1.93;;
13090;SDS011;6611;52.604;13.438;2023-02-21T17:42:14;6.93;;;2.20;;
13090;SDS011;6611;52.604;13.438;2023-02-21T17:47:18;11.07;;;2.40;;
13090;SDS011;6611;52.604;13.438;2023-02-21T17:52:21;4.80;;;1.97;;
13090;SDS011;6611;52.604;13.438;2023-02-21T17:57:23;4.87;;;2.40;;
13090;SDS011;6611;52.604;13.438;2023-02-21T18:02:26;7.73;;;2.77;;
13090;SDS011;6611;52.604;13.438;2023-02-21T18:07:28;10.97;;;3.43;;
13090;SDS011;6611;52.604;13.438;2023-02-21T18:12:32;9.20;;;2.80;;
13090;SDS011;6611;52.604;13.438;2023-02-21T18:17:35;7.73;;;2.33;;
13090;SDS011;6611;52.604;13.438;2023-02-21T18:22:37;8.30;;;2.80;;
13090;SDS011;6611;52.604;13.438;2023-02-21T18:27:38;12.27;;;2.83;;
13090;SDS011;6611;52.604;13.438;2023-02-21T18:32:42;10.03;;;3.63;;
13090;SDS011;6611;52.604;13.438;2023-02-21T18:37:43;6.23;;;2.80;;
13090;SDS011;6611;52.604;13.438;2023-02-21T18:42:46;6.27;;;2.90;;
13090;SDS011;6611;52.604;13.438;2023-02-21T18:47:49;9.80;;;3.40;;
13090;SDS011;6611;52.604;13.438;2023-02-21T18:52:50;8.77;;;3.17;;
13090;SDS011;6611;52.604;13.438;2023-02-21T18:57:52;9.77;;;3.17;;
13090;SDS011;6611;52.604;13.438;2023-02-21T19:02:55;10.67;;;3.07;;
13090;SDS011;6611;52.604;13.438;2023-02-21T19:07:57;12.87;;;3.77;;
13090;SDS011;6611;52.604;13.438;2023-02-21T19:12:59;12.77;;;3.20;;
13090;SDS011;6611;52.604;13.438;2023-02-21T19:18:03;10.90;;;2.90;;
13090;SDS011;6611;52.604;13.438;2023-02-21T19:23:05;6.97;;;2.77;;
13090;SDS011;6611;52.604;13.438;2023-02-21T19:28:06;6.37;;;2.20;;
13090;SDS011;6611;52.604;13.438;2023-02-21T19:33:09;7.23;;;2.90;;
13090;SDS011;6611;52.604;13.438;2023-02-21T19:38:11;8.30;;;3.23;;
13090;SDS011;6611;52.604;13.438;2023-02-21T19:43:13;10.33;;;3.63;;
13090;SDS011;6611;52.604;13.438;2023-02-21T19:48:16;11.23;;;2.57;;
13090;SDS011;6611;52.604;13.438;2023-02-21T19:53:19;9.10;;;2.60;;
13090;SDS011;6611;52.604;13.438;2023-02-21T19:58:21;6.53;;;2.83;;
13090;SDS011;6611;52.604;13.438;2023-02-21T20:03:24;9.37;;;2.67;;
13090;SDS011;6611;52.604;13.438;2023-02-21T20:08:26;8.03;;;2.90;;
13090;SDS011;6611;52.604;13.438;2023-02-21T20:13:28;7.57;;;2.60;;
13090;SDS011;6611;52.604;13.438;2023-02-21T20:18:31;7.93;;;2.63;;
13090;SDS011;6611;52.604;13.438;2023-02-21T20:23:33;8.23;;;2.23;;
13090;SDS011;6611;52.604;13.438;2023-02-21T20:28:34;12.97;;;2.63;;
13090;SDS011;6611;52.604;13.438;2023-02-21T20:33:37;10.43;;;2.70;;
13090;SDS011;6611;52.604;13.438;2023-02-21T20:38:40;4.47;;;1.90;;
13090;SDS011;6611;52.604;13.438;2023-02-21T20:43:41;6.50;;;2.53;;
13090;SDS011;6611;52.604;13.438;2023-02-21T20:48:44;11.60;;;2.90;;
13090;SDS011;6611;52.604;13.438;2023-02-21T20:53:47;5.90;;;2.30;;
13090;SDS011;6611;52.604;13.438;2023-02-21T20:58:52;8.83;;;2.30;;
13090;SDS011;6611;52.604;13.438;2023-02-21T21:03:55;6.73;;;1.90;;
13090;SDS011;6611;52.604;13.438;2023-02-21T21:08:57;9.60;;;2.73;;
13090;SDS011;6611;52.604;13.438;2023-02-21T21:13:58;7.50;;;2.27;;
13090;SDS011;6611;52.604;13.438;2023-02-21T21:19:01;4.53;;;2.07;;
13090;SDS011;6611;52.604;13.438;2023-02-21T21:24:04;7.37;;;2.13;;
13090;SDS011;6611;52.604;13.438;2023-02-21T21:29:07;6.53;;;1.90;;
13090;SDS011;6611;52.604;13.438;2023-02-21T21:34:10;9.97;;;2.70;;
13090;SDS011;6611;52.604;13.438;2023-02-21T21:39:11;19.93;;;3.20;;
13090;SDS011;6611;52.604;13.438;2023-02-21T21:44:13;7.10;;;2.37;;
13090;SDS011;6611;52.604;13.438;2023-02-21T21:49:17;5.43;;;2.80;;
13090;SDS011;6611;52.604;13.438;2023-02-21T21:54:21;10.40;;;2.87;;
13090;SDS011;6611;52.604;13.438;2023-02-21T21:59:24;7.17;;;3.37;;
13090;SDS011;6611;52.604;13.438;2023-02-21T22:04:27;8.70;;;2.70;;
13090;SDS011;6611;52.604;13.438;2023-02-21T22:09:29;6.90;;;2.30;;
13090;SDS011;6611;52.604;13.438;2023-02-21T22:14:32;10.10;;;3.47;;
13090;SDS011;6611;52.604;13.438;2023-02-21T22:19:35;6.80;;;2.63;;
13090;SDS011;6611;52.604;13.438;2023-02-21T22:24:37;11.70;;;3.10;;
13090;SDS011;6611;52.604;13.438;2023-02-21T22:29:40;6.57;;;2.60;;
13090;SDS011;6611;52.604;13.438;2023-02-21T22:34:43;5.33;;;2.50;;
13090;SDS011;6611;52.604;13.438;2023-02-21T22:39:44;8.17;;;3.40;;
13090;SDS011;6611;52.604;13.438;2023-02-21T22:44:47;9.83;;;3.40;;
13090;SDS011;6611;52.604;13.438;2023-02-21T22:49:50;11.50;;;3.20;;
13090;SDS011;6611;52.604;13.438;2023-02-21T22:54:52;8.57;;;2.97;;
13090;SDS011;6611;52.604;13.438;2023-02-21T22:59:54;6.40;;;3.13;;
13090;SDS011;6611;52.604;13.438;2023-02-21T23:04:58;8.13;;;3.57;;
13090;SDS011;6611;52.604;13.438;2023-02-21T23:09:59;12.97;;;3.93;;
13090;SDS011;6611;52.604;13.438;2023-02-21T23:15:02;9.87;;;3.27;;
13090;SDS011;6611;52.604;13.438;2023-02-21T23:20:06;6.37;;;2.90;;
13090;SDS011;6611;52.604;13.438;2023-02-21T23:25:15;7.80;;;2.90;;
13090;SDS011;6611;52.604;13.438;2023-02-21T23:30:23;11.07;;;3.50;;
13090;SDS011;6611;52.604;13.438;2023-02-21T23:35:27;5.00;;;2.80;;
13090;SDS011;6611;52.604;13.438;2023-02-21T23:40:29;7.27;;;2.70;;
13090;SDS011;6611;52.604;13.438;2023-02-21T23:46:09;8.87;;;3.37;;
13090;SDS011;6611;52.604;13.438;2023-02-21T23:51:59;6.27;;;2.73;;
13090;SDS011;6611;52.604;13.438;2023-02-21T23:57:42;10.27;;;3.10;;
